sensor_id;sensor_type;location;lat;lon;timestamp;temperature;humidity
10968;DHT22;5536;49.602;10.980;2022-12-18T00:02:06;-10.60;99.90
10968;DHT22;5536;49.602;10.980;2022-12-18T00:04:40;-10.40;99.90
10968;DHT22;5536;49.602;10.980;2022-12-18T00:07:08;-10.30;99.90
10968;DHT22;5536;49.602;10.980;2022-12-18T00:09:36;-10.20;99.90
10968;DHT22;5536;49.602;10.980;2022-12-18T00:12:03;-9.80;99.90
10968;DHT22;5536;49.602;10.980;2022-12-18T00:14:30;-9.80;99.90
10968;DHT22;5536;49.602;10.980;2022-12-18T00:16:57;-9.80;99.90
10968;DHT22;5536;49.602;10.980;2022-12-18T00:19:26;-9.70;99.90
10968;DHT22;5536;49.602;10.980;2022-12-18T00:21:53;-9.70;99.90
10968;DHT22;5536;49.602;10.980;2022-12-18T00:24:23;-9.80;99.90
10968;DHT22;5536;49.602;10.980;2022-12-18T00:26:50;-10.00;99.90
10968;DHT22;5536;49.602;10.980;2022-12-18T00:29:17;-9.90;99.90
10968;DHT22;5536;49.602;10.980;2022-12-18T00:31:44;-9.70;99.90
10968;DHT22;5536;49.602;10.980;2022-12-18T00:34:12;-9.70;99.90
10968;DHT22;5536;49.602;10.980;2022-12-18T00:36:40;-9.80;99.90
10968;DHT22;5536;49.602;10.980;2022-12-18T00:39:07;-10.00;99.90
10968;DHT22;5536;49.602;10.980;2022-12-18T00:41:36;-10.40;99.90
10968;DHT22;5536;49.602;10.980;2022-12-18T00:44:20;-10.30;99.90
10968;DHT22;5536;49.602;10.980;2022-12-18T00:46:47;-10.20;99.90
10968;DHT22;5536;49.602;10.980;2022-12-18T00:49:15;-10.30;99.90
10968;DHT22;5536;49.602;10.980;2022-12-18T00:51:43;-10.20;99.90
10968;DHT22;5536;49.602;10.980;2022-12-18T00:54:10;-10.30;99.90
10968;DHT22;5536;49.602;10.980;2022-12-18T00:56:39;-10.50;99.90
10968;DHT22;5536;49.602;10.980;2022-12-18T00:59:07;-10.40;99.90
10968;DHT22;5536;49.602;10.980;2022-12-18T01:01:34;-10.20;99.90
10968;DHT22;5536;49.602;10.980;2022-12-18T01:04:01;-10.20;99.90
10968;DHT22;5536;49.602;10.980;2022-12-18T01:06:29;-10.10;99.90
10968;DHT22;5536;49.602;10.980;2022-12-18T01:08:56;-10.00;99.90
10968;DHT22;5536;49.602;10.980;2022-12-18T01:11:23;-9.90;99.90
10968;DHT22;5536;49.602;10.980;2022-12-18T01:13:53;-9.80;99.90
10968;DHT22;5536;49.602;10.980;2022-12-18T01:16:21;-9.70;99.90
10968;DHT22;5536;49.602;10.980;2022-12-18T01:18:52;-9.70;99.90
10968;DHT22;5536;49.602;10.980;2022-12-18T01:21:19;-10.10;99.90
10968;DHT22;5536;49.602;10.980;2022-12-18T01:24:13;-10.20;99.90
10968;DHT22;5536;49.602;10.980;2022-12-18T01:26:43;-10.40;99.90
10968;DHT22;5536;49.602;10.980;2022-12-18T01:29:14;-10.20;99.90
10968;DHT22;5536;49.602;10.980;2022-12-18T01:31:47;-9.90;99.90
10968;DHT22;5536;49.602;10.980;2022-12-18T01:34:14;-9.90;99.90
10968;DHT22;5536;49.602;10.980;2022-12-18T01:36:44;-9.90;99.90
10968;DHT22;5536;49.602;10.980;2022-12-18T01:39:13;-10.00;99.90
10968;DHT22;5536;49.602;10.980;2022-12-18T01:41:41;-10.10;99.90
10968;DHT22;5536;49.602;10.980;2022-12-18T01:45:00;-9.80;99.90
10968;DHT22;5536;49.602;10.980;2022-12-18T01:47:42;-9.70;99.90
10968;DHT22;5536;49.602;10.980;2022-12-18T01:50:13;-9.80;99.90
10968;DHT22;5536;49.602;10.980;2022-12-18T01:52:41;-9.80;99.90
10968;DHT22;5536;49.602;10.980;2022-12-18T01:55:09;-9.80;99.90
10968;DHT22;5536;49.602;10.980;2022-12-18T01:57:38;-10.00;99.90
10968;DHT22;5536;49.602;10.980;2022-12-18T02:00:13;-10.50;99.90
10968;DHT22;5536;49.602;10.980;2022-12-18T02:02:47;-10.50;99.90
10968;DHT22;5536;49.602;10.980;2022-12-18T02:05:31;-10.30;99.90
10968;DHT22;5536;49.602;10.980;2022-12-18T02:08:04;-10.20;99.90
10968;DHT22;5536;49.602;10.980;2022-12-18T02:10:51;-10.10;99.90
10968;DHT22;5536;49.602;10.980;2022-12-18T02:13:24;-10.10;99.90
10968;DHT22;5536;49.602;10.980;2022-12-18T02:16:00;-10.30;99.90
10968;DHT22;5536;49.602;10.980;2022-12-18T02:18:33;-10.80;99.90
10968;DHT22;5536;49.602;10.980;2022-12-18T02:21:08;-10.90;99.90
10968;DHT22;5536;49.602;10.980;2022-12-18T02:23:46;-11.10;99.90
10968;DHT22;5536;49.602;10.980;2022-12-18T02:26:23;-11.30;99.90
10968;DHT22;5536;49.602;10.980;2022-12-18T02:28:57;-11.40;99.90
10968;DHT22;5536;49.602;10.980;2022-12-18T02:31:28;-11.10;99.90
10968;DHT22;5536;49.602;10.980;2022-12-18T02:33:59;-10.90;99.90
10968;DHT22;5536;49.602;10.980;2022-12-18T02:36:28;-11.20;99.90
10968;DHT22;5536;49.602;10.980;2022-12-18T02:38:59;-11.30;99.90
10968;DHT22;5536;49.602;10.980;2022-12-18T02:41:30;-11.40;99.90
10968;DHT22;5536;49.602;10.980;2022-12-18T02:43:59;-11.40;99.90
10968;DHT22;5536;49.602;10.980;2022-12-18T02:46:32;-11.20;99.90
10968;DHT22;5536;49.602;10.980;2022-12-18T02:49:21;-11.10;99.90
10968;DHT22;5536;49.602;10.980;2022-12-18T02:51:52;-11.00;99.90
10968;DHT22;5536;49.602;10.980;2022-12-18T02:54:32;-11.00;99.90
10968;DHT22;5536;49.602;10.980;2022-12-18T02:57:13;-11.00;99.90
10968;DHT22;5536;49.602;10.980;2022-12-18T02:59:48;-10.90;99.90
10968;DHT22;5536;49.602;10.980;2022-12-18T03:02:20;-10.70;99.90
10968;DHT22;5536;49.602;10.980;2022-12-18T03:04:53;-10.50;99.90
10968;DHT22;5536;49.602;10.980;2022-12-18T03:07:27;-10.50;99.90
10968;DHT22;5536;49.602;10.980;2022-12-18T03:09:54;-10.20;99.90
10968;DHT22;5536;49.602;10.980;2022-12-18T03:12:28;-10.10;99.90
10968;DHT22;5536;49.602;10.980;2022-12-18T03:15:00;-10.10;99.90
10968;DHT22;5536;49.602;10.980;2022-12-18T03:17:31;-10.00;99.90
10968;DHT22;5536;49.602;10.980;2022-12-18T03:20:02;-10.00;99.90
10968;DHT22;5536;49.602;10.980;2022-12-18T03:22:32;-9.90;99.90
10968;DHT22;5536;49.602;10.980;2022-12-18T03:25:02;-9.80;99.90
10968;DHT22;5536;49.602;10.980;2022-12-18T03:27:33;-9.70;99.90
10968;DHT22;5536;49.602;10.980;2022-12-18T03:30:03;-9.60;99.90
10968;DHT22;5536;49.602;10.980;2022-12-18T03:32:38;-9.60;99.90
10968;DHT22;5536;49.602;10.980;2022-12-18T03:35:08;-9.60;99.90
10968;DHT22;5536;49.602;10.980;2022-12-18T03:37:35;-9.50;99.90
10968;DHT22;5536;49.602;10.980;2022-12-18T03:40:03;-9.50;99.90
10968;DHT22;5536;49.602;10.980;2022-12-18T03:42:38;-9.80;99.90
10968;DHT22;5536;49.602;10.980;2022-12-18T03:45:09;-10.20;99.90
10968;DHT22;5536;49.602;10.980;2022-12-18T03:47:44;-10.30;99.90
10968;DHT22;5536;49.602;10.980;2022-12-18T03:50:16;-10.20;99.90
10968;DHT22;5536;49.602;10.980;2022-12-18T03:52:49;-9.80;99.90
10968;DHT22;5536;49.602;10.980;2022-12-18T03:55:17;-9.70;99.90
10968;DHT22;5536;49.602;10.980;2022-12-18T03:57:47;-9.80;99.90
10968;DHT22;5536;49.602;10.980;2022-12-18T04:00:17;-9.90;99.90
10968;DHT22;5536;49.602;10.980;2022-12-18T04:02:48;-10.00;99.90
10968;DHT22;5536;49.602;10.980;2022-12-18T04:05:17;-9.90;99.90
10968;DHT22;5536;49.602;10.980;2022-12-18T04:07:47;-9.90;99.90
10968;DHT22;5536;49.602;10.980;2022-12-18T04:10:14;-9.90;99.90
10968;DHT22;5536;49.602;10.980;2022-12-18T04:12:42;-9.70;99.90
10968;DHT22;5536;49.602;10.980;2022-12-18T04:15:12;-9.60;99.90
10968;DHT22;5536;49.602;10.980;2022-12-18T04:17:43;-9.40;99.90
10968;DHT22;5536;49.602;10.980;2022-12-18T04:20:13;-9.30;99.90
10968;DHT22;5536;49.602;10.980;2022-12-18T04:22:40;-9.20;99.90
10968;DHT22;5536;49.602;10.980;2022-12-18T04:25:07;-9.10;99.90
10968;DHT22;5536;49.602;10.980;2022-12-18T04:27:38;-9.10;99.90
10968;DHT22;5536;49.602;10.980;2022-12-18T04:30:16;-9.00;99.90
10968;DHT22;5536;49.602;10.980;2022-12-18T04:32:43;-8.80;99.90
10968;DHT22;5536;49.602;10.980;2022-12-18T04:35:10;-8.80;99.90
10968;DHT22;5536;49.602;10.980;2022-12-18T04:37:37;-8.70;99.90
10968;DHT22;5536;49.602;10.980;2022-12-18T04:40:05;-8.60;99.90
10968;DHT22;5536;49.602;10.980;2022-12-18T04:42:32;-8.40;99.90
10968;DHT22;5536;49.602;10.980;2022-12-18T04:44:59;-8.40;99.90
10968;DHT22;5536;49.602;10.980;2022-12-18T04:47:27;-8.30;99.90
10968;DHT22;5536;49.602;10.980;2022-12-18T04:49:54;-8.30;99.90
10968;DHT22;5536;49.602;10.980;2022-12-18T04:52:21;-8.30;99.90
10968;DHT22;5536;49.602;10.980;2022-12-18T04:54:48;-8.30;99.90
10968;DHT22;5536;49.602;10.980;2022-12-18T04:57:15;-8.30;99.90
10968;DHT22;5536;49.602;10.980;2022-12-18T04:59:43;-8.20;99.90
10968;DHT22;5536;49.602;10.980;2022-12-18T05:02:10;-8.20;99.90
10968;DHT22;5536;49.602;10.980;2022-12-18T05:04:39;-8.10;99.90
10968;DHT22;5536;49.602;10.980;2022-12-18T05:07:06;-7.90;99.90
10968;DHT22;5536;49.602;10.980;2022-12-18T05:09:33;-7.90;99.90
10968;DHT22;5536;49.602;10.980;2022-12-18T05:11:59;-7.90;99.90
10968;DHT22;5536;49.602;10.980;2022-12-18T05:14:26;-7.90;99.90
10968;DHT22;5536;49.602;10.980;2022-12-18T05:16:54;-7.80;99.90
10968;DHT22;5536;49.602;10.980;2022-12-18T05:19:21;-7.90;99.90
10968;DHT22;5536;49.602;10.980;2022-12-18T05:21:50;-7.90;99.90
10968;DHT22;5536;49.602;10.980;2022-12-18T05:24:16;-7.90;99.90
10968;DHT22;5536;49.602;10.980;2022-12-18T05:26:43;-7.90;99.90
10968;DHT22;5536;49.602;10.980;2022-12-18T05:29:10;-7.80;99.90
10968;DHT22;5536;49.602;10.980;2022-12-18T05:31:38;-7.70;99.90
10968;DHT22;5536;49.602;10.980;2022-12-18T05:34:04;-7.70;99.90
10968;DHT22;5536;49.602;10.980;2022-12-18T05:36:31;-7.60;99.90
10968;DHT22;5536;49.602;10.980;2022-12-18T05:39:00;-7.60;99.90
10968;DHT22;5536;49.602;10.980;2022-12-18T05:41:27;-7.60;99.90
10968;DHT22;5536;49.602;10.980;2022-12-18T05:43:54;-7.50;99.90
10968;DHT22;5536;49.602;10.980;2022-12-18T05:46:21;-7.50;99.90
10968;DHT22;5536;49.602;10.980;2022-12-18T05:48:48;-7.50;99.90
10968;DHT22;5536;49.602;10.980;2022-12-18T05:51:18;-7.50;99.90
10968;DHT22;5536;49.602;10.980;2022-12-18T05:53:46;-7.40;99.90
10968;DHT22;5536;49.602;10.980;2022-12-18T05:56:16;-7.40;99.90
10968;DHT22;5536;49.602;10.980;2022-12-18T05:58:44;-7.40;99.90
10968;DHT22;5536;49.602;10.980;2022-12-18T06:01:12;-7.40;99.90
10968;DHT22;5536;49.602;10.980;2022-12-18T06:03:40;-7.40;99.90
10968;DHT22;5536;49.602;10.980;2022-12-18T06:06:13;-7.30;99.90
10968;DHT22;5536;49.602;10.980;2022-12-18T06:08:41;-7.30;99.90
10968;DHT22;5536;49.602;10.980;2022-12-18T06:11:08;-7.30;99.90
10968;DHT22;5536;49.602;10.980;2022-12-18T06:13:36;-7.30;99.90
10968;DHT22;5536;49.602;10.980;2022-12-18T06:16:04;-7.30;99.90
10968;DHT22;5536;49.602;10.980;2022-12-18T06:18:31;-7.20;99.90
10968;DHT22;5536;49.602;10.980;2022-12-18T06:20:59;-7.20;99.90
10968;DHT22;5536;49.602;10.980;2022-12-18T06:23:27;-7.20;99.90
10968;DHT22;5536;49.602;10.980;2022-12-18T06:25:54;-7.10;99.90
10968;DHT22;5536;49.602;10.980;2022-12-18T06:28:21;-7.10;99.90
10968;DHT22;5536;49.602;10.980;2022-12-18T06:30:49;-7.00;99.90
10968;DHT22;5536;49.602;10.980;2022-12-18T06:33:17;-7.00;99.90
10968;DHT22;5536;49.602;10.980;2022-12-18T06:35:44;-6.90;99.90
10968;DHT22;5536;49.602;10.980;2022-12-18T06:38:10;-6.90;99.90
10968;DHT22;5536;49.602;10.980;2022-12-18T06:40:38;-6.80;99.90
10968;DHT22;5536;49.602;10.980;2022-12-18T06:43:05;-6.80;99.90
10968;DHT22;5536;49.602;10.980;2022-12-18T06:45:33;-6.70;99.90
10968;DHT22;5536;49.602;10.980;2022-12-18T06:48:01;-6.70;99.90
10968;DHT22;5536;49.602;10.980;2022-12-18T06:50:28;-6.70;99.90
10968;DHT22;5536;49.602;10.980;2022-12-18T06:52:55;-6.70;99.90
10968;DHT22;5536;49.602;10.980;2022-12-18T06:55:22;-6.70;99.90
10968;DHT22;5536;49.602;10.980;2022-12-18T06:57:49;-6.70;99.90
10968;DHT22;5536;49.602;10.980;2022-12-18T07:00:16;-6.60;99.90
10968;DHT22;5536;49.602;10.980;2022-12-18T07:02:43;-6.60;99.90
10968;DHT22;5536;49.602;10.980;2022-12-18T07:05:11;-6.60;99.90
10968;DHT22;5536;49.602;10.980;2022-12-18T07:07:38;-6.60;99.90
10968;DHT22;5536;49.602;10.980;2022-12-18T07:10:06;-6.60;99.90
10968;DHT22;5536;49.602;10.980;2022-12-18T07:12:32;-6.60;99.90
10968;DHT22;5536;49.602;10.980;2022-12-18T07:14:59;-6.60;99.90
10968;DHT22;5536;49.602;10.980;2022-12-18T07:17:26;-6.50;99.90
10968;DHT22;5536;49.602;10.980;2022-12-18T07:19:53;-6.50;99.90
10968;DHT22;5536;49.602;10.980;2022-12-18T07:22:22;-6.50;99.90
10968;DHT22;5536;49.602;10.980;2022-12-18T07:24:50;-6.40;99.90
10968;DHT22;5536;49.602;10.980;2022-12-18T07:27:17;-6.40;99.90
10968;DHT22;5536;49.602;10.980;2022-12-18T07:29:44;-6.30;99.90
10968;DHT22;5536;49.602;10.980;2022-12-18T07:32:10;-6.30;99.90
10968;DHT22;5536;49.602;10.980;2022-12-18T07:34:37;-6.20;99.90
10968;DHT22;5536;49.602;10.980;2022-12-18T07:37:04;-6.20;99.90
10968;DHT22;5536;49.602;10.980;2022-12-18T07:39:33;-6.10;99.90
10968;DHT22;5536;49.602;10.980;2022-12-18T07:42:00;-6.10;99.90
10968;DHT22;5536;49.602;10.980;2022-12-18T07:44:44;-6.00;99.90
10968;DHT22;5536;49.602;10.980;2022-12-18T07:47:11;-5.90;99.90
10968;DHT22;5536;49.602;10.980;2022-12-18T07:49:38;-5.90;99.90
10968;DHT22;5536;49.602;10.980;2022-12-18T07:52:05;-5.90;99.90
10968;DHT22;5536;49.602;10.980;2022-12-18T07:54:33;-5.80;99.90
10968;DHT22;5536;49.602;10.980;2022-12-18T07:57:00;-5.70;99.90
10968;DHT22;5536;49.602;10.980;2022-12-18T07:59:27;-5.70;99.90
10968;DHT22;5536;49.602;10.980;2022-12-18T08:01:54;-5.60;99.90
10968;DHT22;5536;49.602;10.980;2022-12-18T08:04:21;-5.50;99.90
10968;DHT22;5536;49.602;10.980;2022-12-18T08:06:48;-5.50;99.90
10968;DHT22;5536;49.602;10.980;2022-12-18T08:09:15;-5.40;99.90
10968;DHT22;5536;49.602;10.980;2022-12-18T08:11:43;-5.30;99.90
10968;DHT22;5536;49.602;10.980;2022-12-18T08:14:10;-5.30;99.90
10968;DHT22;5536;49.602;10.980;2022-12-18T08:16:37;-5.20;99.90
10968;DHT22;5536;49.602;10.980;2022-12-18T08:19:04;-5.10;99.90
10968;DHT22;5536;49.602;10.980;2022-12-18T08:21:31;-5.10;99.90
10968;DHT22;5536;49.602;10.980;2022-12-18T08:23:59;-5.00;99.90
10968;DHT22;5536;49.602;10.980;2022-12-18T08:26:28;-5.00;99.90
10968;DHT22;5536;49.602;10.980;2022-12-18T08:28:57;-4.90;99.90
10968;DHT22;5536;49.602;10.980;2022-12-18T08:31:26;-4.90;99.90
10968;DHT22;5536;49.602;10.980;2022-12-18T08:33:54;-4.80;99.90
10968;DHT22;5536;49.602;10.980;2022-12-18T08:36:21;-4.80;99.90
10968;DHT22;5536;49.602;10.980;2022-12-18T08:38:48;-4.80;99.90
10968;DHT22;5536;49.602;10.980;2022-12-18T08:41:16;-4.70;99.90
10968;DHT22;5536;49.602;10.980;2022-12-18T08:43:44;-4.60;99.90
10968;DHT22;5536;49.602;10.980;2022-12-18T08:46:35;-4.50;99.90
10968;DHT22;5536;49.602;10.980;2022-12-18T08:49:03;-4.40;99.90
10968;DHT22;5536;49.602;10.980;2022-12-18T08:51:30;-4.40;99.90
10968;DHT22;5536;49.602;10.980;2022-12-18T08:53:57;-4.40;99.90
10968;DHT22;5536;49.602;10.980;2022-12-18T08:56:24;-4.30;99.90
10968;DHT22;5536;49.602;10.980;2022-12-18T08:58:52;-4.30;99.90
10968;DHT22;5536;49.602;10.980;2022-12-18T09:01:19;-4.20;99.90
10968;DHT22;5536;49.602;10.980;2022-12-18T09:03:48;-4.10;99.90
10968;DHT22;5536;49.602;10.980;2022-12-18T09:06:16;-4.00;99.90
10968;DHT22;5536;49.602;10.980;2022-12-18T09:08:43;-4.00;99.90
10968;DHT22;5536;49.602;10.980;2022-12-18T09:11:13;-3.90;99.90
10968;DHT22;5536;49.602;10.980;2022-12-18T09:13:41;-3.90;99.90
10968;DHT22;5536;49.602;10.980;2022-12-18T09:16:08;-3.90;99.90
10968;DHT22;5536;49.602;10.980;2022-12-18T09:18:35;-3.80;99.90
10968;DHT22;5536;49.602;10.980;2022-12-18T09:21:10;-3.80;99.90
10968;DHT22;5536;49.602;10.980;2022-12-18T09:23:37;-3.70;99.90
10968;DHT22;5536;49.602;10.980;2022-12-18T09:26:04;-3.70;99.90
10968;DHT22;5536;49.602;10.980;2022-12-18T09:28:31;-3.60;99.90
10968;DHT22;5536;49.602;10.980;2022-12-18T09:30:58;-3.60;99.90
10968;DHT22;5536;49.602;10.980;2022-12-18T09:33:25;-3.50;99.90
10968;DHT22;5536;49.602;10.980;2022-12-18T09:35:52;-3.50;99.90
10968;DHT22;5536;49.602;10.980;2022-12-18T09:38:20;-3.50;99.90
10968;DHT22;5536;49.602;10.980;2022-12-18T09:40:49;-3.40;99.90
10968;DHT22;5536;49.602;10.980;2022-12-18T09:43:19;-3.30;99.90
10968;DHT22;5536;49.602;10.980;2022-12-18T09:45:50;-3.30;99.90
10968;DHT22;5536;49.602;10.980;2022-12-18T09:48:21;-3.30;99.90
10968;DHT22;5536;49.602;10.980;2022-12-18T09:50:50;-3.20;99.90
10968;DHT22;5536;49.602;10.980;2022-12-18T09:53:22;-3.20;99.90
10968;DHT22;5536;49.602;10.980;2022-12-18T09:55:51;-3.20;99.90
10968;DHT22;5536;49.602;10.980;2022-12-18T09:58:26;-3.10;99.90
10968;DHT22;5536;49.602;10.980;2022-12-18T10:00:55;-3.00;99.90
10968;DHT22;5536;49.602;10.980;2022-12-18T10:03:22;-3.10;99.90
10968;DHT22;5536;49.602;10.980;2022-12-18T10:05:57;-3.00;99.90
10968;DHT22;5536;49.602;10.980;2022-12-18T10:08:33;-2.90;99.90
10968;DHT22;5536;49.602;10.980;2022-12-18T10:11:20;-2.90;99.90
10968;DHT22;5536;49.602;10.980;2022-12-18T10:13:53;-2.90;99.90
10968;DHT22;5536;49.602;10.980;2022-12-18T10:16:27;-2.80;99.90
10968;DHT22;5536;49.602;10.980;2022-12-18T10:19:03;-2.70;99.90
10968;DHT22;5536;49.602;10.980;2022-12-18T10:21:39;-2.60;99.90
10968;DHT22;5536;49.602;10.980;2022-12-18T10:24:16;-2.50;99.90
10968;DHT22;5536;49.602;10.980;2022-12-18T10:26:47;-2.50;99.90
10968;DHT22;5536;49.602;10.980;2022-12-18T10:29:15;-2.40;99.90
10968;DHT22;5536;49.602;10.980;2022-12-18T10:31:43;-2.20;99.90
10968;DHT22;5536;49.602;10.980;2022-12-18T10:34:10;-2.00;99.90
10968;DHT22;5536;49.602;10.980;2022-12-18T10:36:37;-1.80;99.90
10968;DHT22;5536;49.602;10.980;2022-12-18T10:39:19;-1.80;99.90
10968;DHT22;5536;49.602;10.980;2022-12-18T10:41:48;-1.70;99.90
10968;DHT22;5536;49.602;10.980;2022-12-18T10:44:18;-1.70;99.90
10968;DHT22;5536;49.602;10.980;2022-12-18T10:46:46;-1.70;99.90
10968;DHT22;5536;49.602;10.980;2022-12-18T10:49:22;-1.70;99.90
10968;DHT22;5536;49.602;10.980;2022-12-18T10:51:52;-1.50;99.90
10968;DHT22;5536;49.602;10.980;2022-12-18T10:54:32;-1.40;99.90
10968;DHT22;5536;49.602;10.980;2022-12-18T10:57:14;-1.40;99.90
10968;DHT22;5536;49.602;10.980;2022-12-18T10:59:51;-1.70;99.90
10968;DHT22;5536;49.602;10.980;2022-12-18T11:02:27;-1.70;99.90
10968;DHT22;5536;49.602;10.980;2022-12-18T11:04:54;-1.60;99.90
10968;DHT22;5536;49.602;10.980;2022-12-18T11:07:21;-1.60;99.90
10968;DHT22;5536;49.602;10.980;2022-12-18T11:10:00;-1.40;99.90
10968;DHT22;5536;49.602;10.980;2022-12-18T11:12:28;-1.20;99.90
10968;DHT22;5536;49.602;10.980;2022-12-18T11:14:56;-1.10;99.90
10968;DHT22;5536;49.602;10.980;2022-12-18T11:17:29;-0.90;99.90
10968;DHT22;5536;49.602;10.980;2022-12-18T11:19:57;-0.80;99.90
10968;DHT22;5536;49.602;10.980;2022-12-18T11:22:26;-0.50;99.90
10968;DHT22;5536;49.602;10.980;2022-12-18T11:24:58;-0.30;99.90
10968;DHT22;5536;49.602;10.980;2022-12-18T11:27:26;-0.40;99.90
10968;DHT22;5536;49.602;10.980;2022-12-18T11:30:07;0.00;99.90
10968;DHT22;5536;49.602;10.980;2022-12-18T11:32:37;0.30;99.90
10968;DHT22;5536;49.602;10.980;2022-12-18T11:35:13;0.30;99.90
10968;DHT22;5536;49.602;10.980;2022-12-18T11:37:45;0.20;99.90
10968;DHT22;5536;49.602;10.980;2022-12-18T11:40:19;0.20;99.90
10968;DHT22;5536;49.602;10.980;2022-12-18T11:42:51;0.00;99.90
10968;DHT22;5536;49.602;10.980;2022-12-18T11:45:31;0.40;99.90
10968;DHT22;5536;49.602;10.980;2022-12-18T11:48:04;0.80;99.90
10968;DHT22;5536;49.602;10.980;2022-12-18T11:50:46;0.60;99.90
10968;DHT22;5536;49.602;10.980;2022-12-18T11:53:15;0.70;99.90
10968;DHT22;5536;49.602;10.980;2022-12-18T11:55:52;0.50;99.90
10968;DHT22;5536;49.602;10.980;2022-12-18T11:58:35;0.50;99.90
10968;DHT22;5536;49.602;10.980;2022-12-18T12:01:21;0.50;99.90
10968;DHT22;5536;49.602;10.980;2022-12-18T12:06:46;0.10;99.90
10968;DHT22;5536;49.602;10.980;2022-12-18T12:09:21;0.00;99.90
10968;DHT22;5536;49.602;10.980;2022-12-18T12:11:58;-0.10;99.90
10968;DHT22;5536;49.602;10.980;2022-12-18T12:14:40;0.00;99.90
10968;DHT22;5536;49.602;10.980;2022-12-18T12:17:15;0.00;99.90
10968;DHT22;5536;49.602;10.980;2022-12-18T12:19:50;0.20;99.90
10968;DHT22;5536;49.602;10.980;2022-12-18T12:22:27;0.60;99.90
10968;DHT22;5536;49.602;10.980;2022-12-18T12:25:05;0.50;99.90
10968;DHT22;5536;49.602;10.980;2022-12-18T12:27:43;0.60;99.90
10968;DHT22;5536;49.602;10.980;2022-12-18T12:30:18;0.70;99.90
10968;DHT22;5536;49.602;10.980;2022-12-18T12:32:58;0.80;99.90
10968;DHT22;5536;49.602;10.980;2022-12-18T12:35:36;1.10;99.90
10968;DHT22;5536;49.602;10.980;2022-12-18T12:38:09;1.00;99.90
10968;DHT22;5536;49.602;10.980;2022-12-18T12:40:41;1.10;99.90
10968;DHT22;5536;49.602;10.980;2022-12-18T12:43:20;1.30;99.90
10968;DHT22;5536;49.602;10.980;2022-12-18T12:45:50;1.30;99.90
10968;DHT22;5536;49.602;10.980;2022-12-18T12:48:24;1.40;99.90
10968;DHT22;5536;49.602;10.980;2022-12-18T12:50:55;1.60;99.90
10968;DHT22;5536;49.602;10.980;2022-12-18T12:53:27;1.90;99.90
10968;DHT22;5536;49.602;10.980;2022-12-18T12:55:55;2.00;99.90
10968;DHT22;5536;49.602;10.980;2022-12-18T12:58:31;2.00;99.90
10968;DHT22;5536;49.602;10.980;2022-12-18T13:01:08;1.80;99.90
10968;DHT22;5536;49.602;10.980;2022-12-18T13:03:45;1.70;99.90
10968;DHT22;5536;49.602;10.980;2022-12-18T13:06:28;1.40;99.90
10968;DHT22;5536;49.602;10.980;2022-12-18T13:08:58;1.30;99.90
10968;DHT22;5536;49.602;10.980;2022-12-18T13:11:36;1.20;99.90
10968;DHT22;5536;49.602;10.980;2022-12-18T13:14:29;1.00;99.90
10968;DHT22;5536;49.602;10.980;2022-12-18T13:17:27;0.90;99.90
10968;DHT22;5536;49.602;10.980;2022-12-18T13:20:05;0.80;99.90
10968;DHT22;5536;49.602;10.980;2022-12-18T13:22:36;0.70;99.90
10968;DHT22;5536;49.602;10.980;2022-12-18T13:25:28;0.60;99.90
10968;DHT22;5536;49.602;10.980;2022-12-18T13:28:10;0.60;99.90
10968;DHT22;5536;49.602;10.980;2022-12-18T13:30:57;0.60;99.90
10968;DHT22;5536;49.602;10.980;2022-12-18T13:33:45;0.40;99.90
10968;DHT22;5536;49.602;10.980;2022-12-18T13:36:15;0.10;99.90
10968;DHT22;5536;49.602;10.980;2022-12-18T13:38:43;0.00;99.90
10968;DHT22;5536;49.602;10.980;2022-12-18T13:41:24;-0.10;99.90
10968;DHT22;5536;49.602;10.980;2022-12-18T13:43:53;-0.30;99.90
10968;DHT22;5536;49.602;10.980;2022-12-18T13:46:28;-0.30;99.90
10968;DHT22;5536;49.602;10.980;2022-12-18T13:48:59;-0.40;99.90
10968;DHT22;5536;49.602;10.980;2022-12-18T13:51:28;-0.50;99.90
10968;DHT22;5536;49.602;10.980;2022-12-18T13:53:57;-0.70;99.90
10968;DHT22;5536;49.602;10.980;2022-12-18T13:56:27;-0.80;99.90
10968;DHT22;5536;49.602;10.980;2022-12-18T13:59:15;-0.90;99.90
10968;DHT22;5536;49.602;10.980;2022-12-18T14:01:47;-0.90;99.90
10968;DHT22;5536;49.602;10.980;2022-12-18T14:04:20;-1.00;99.90
10968;DHT22;5536;49.602;10.980;2022-12-18T14:06:49;-1.00;99.90
10968;DHT22;5536;49.602;10.980;2022-12-18T14:09:25;-1.10;99.90
10968;DHT22;5536;49.602;10.980;2022-12-18T14:11:53;-1.10;99.90
10968;DHT22;5536;49.602;10.980;2022-12-18T14:14:44;-1.10;99.90
10968;DHT22;5536;49.602;10.980;2022-12-18T14:17:14;-1.20;99.90
10968;DHT22;5536;49.602;10.980;2022-12-18T14:19:43;-1.20;99.90
10968;DHT22;5536;49.602;10.980;2022-12-18T14:22:16;-1.20;99.90
10968;DHT22;5536;49.602;10.980;2022-12-18T14:24:44;-1.20;99.90
10968;DHT22;5536;49.602;10.980;2022-12-18T14:27:22;-1.20;99.90
10968;DHT22;5536;49.602;10.980;2022-12-18T14:29:50;-1.20;99.90
10968;DHT22;5536;49.602;10.980;2022-12-18T14:32:20;-1.20;99.90
10968;DHT22;5536;49.602;10.980;2022-12-18T14:34:48;-1.30;99.90
10968;DHT22;5536;49.602;10.980;2022-12-18T14:37:17;-1.30;99.90
10968;DHT22;5536;49.602;10.980;2022-12-18T14:39:58;-1.40;99.90
10968;DHT22;5536;49.602;10.980;2022-12-18T14:42:26;-1.40;99.90
10968;DHT22;5536;49.602;10.980;2022-12-18T14:47:56;-1.50;99.90
10968;DHT22;5536;49.602;10.980;2022-12-18T14:50:23;-1.60;99.90
10968;DHT22;5536;49.602;10.980;2022-12-18T14:52:50;-1.60;99.90
10968;DHT22;5536;49.602;10.980;2022-12-18T14:55:18;-1.70;99.90
10968;DHT22;5536;49.602;10.980;2022-12-18T14:57:50;-1.70;99.90
10968;DHT22;5536;49.602;10.980;2022-12-18T15:00:20;-1.80;99.90
10968;DHT22;5536;49.602;10.980;2022-12-18T15:02:49;-1.80;99.90
10968;DHT22;5536;49.602;10.980;2022-12-18T15:05:20;-1.90;99.90
10968;DHT22;5536;49.602;10.980;2022-12-18T15:07:49;-2.00;99.90
10968;DHT22;5536;49.602;10.980;2022-12-18T15:10:18;-2.00;99.90
10968;DHT22;5536;49.602;10.980;2022-12-18T15:12:47;-2.00;99.90
10968;DHT22;5536;49.602;10.980;2022-12-18T15:15:43;-2.10;99.90
10968;DHT22;5536;49.602;10.980;2022-12-18T15:18:13;-2.20;99.90
10968;DHT22;5536;49.602;10.980;2022-12-18T15:20:45;-2.20;99.90
10968;DHT22;5536;49.602;10.980;2022-12-18T15:23:16;-2.30;99.90
10968;DHT22;5536;49.602;10.980;2022-12-18T15:25:44;-2.30;99.90
10968;DHT22;5536;49.602;10.980;2022-12-18T15:28:22;-2.30;99.90
10968;DHT22;5536;49.602;10.980;2022-12-18T15:31:01;-2.40;99.90
10968;DHT22;5536;49.602;10.980;2022-12-18T15:33:34;-2.40;99.90
10968;DHT22;5536;49.602;10.980;2022-12-18T15:36:07;-2.40;99.90
10968;DHT22;5536;49.602;10.980;2022-12-18T15:38:35;-2.50;99.90
10968;DHT22;5536;49.602;10.980;2022-12-18T15:41:02;-2.50;99.90
10968;DHT22;5536;49.602;10.980;2022-12-18T15:43:37;-2.60;99.90
10968;DHT22;5536;49.602;10.980;2022-12-18T15:46:05;-2.60;99.90
10968;DHT22;5536;49.602;10.980;2022-12-18T15:48:34;-2.60;99.90
10968;DHT22;5536;49.602;10.980;2022-12-18T15:51:04;-2.60;99.90
10968;DHT22;5536;49.602;10.980;2022-12-18T15:53:32;-2.70;99.90
10968;DHT22;5536;49.602;10.980;2022-12-18T15:56:00;-2.60;99.90
10968;DHT22;5536;49.602;10.980;2022-12-18T15:58:44;-2.70;99.90
10968;DHT22;5536;49.602;10.980;2022-12-18T16:01:11;-2.70;99.90